LFAT/LTQ METAR and TAF weather

Enter ICAO airport designator
Station Type Date Time Source
LFAT METAR 2021/05/11 23:30 UTC NOAA

LFAT 112330Z AUTO 23008KT 200V260 CAVOK 11/09 Q1011


Station Type Date Time Source
LFAT Decoded METAR 2021/05/11 23:30 UTC NOAA

Le Touquet, France (LFAT) 50-31N 001-37E 14M
May 11, 2021 - 07:30 PM EDT / 2021.05.11 2330 UTC
Wind: from the SW (230 degrees) at 9 MPH (8 KT) (direction variable):0
Visibility: greater than 7 mile(s):0
Temperature: 51 F (11 C)
Dew Point: 48 F (9 C)
Relative Humidity: 87%
Pressure (altimeter): 29.85 in. Hg (1011 hPa)
ob: LFAT 112330Z AUTO 23008KT 200V260 CAVOK 11/09 Q1011
cycle: 23

Station Type Date Time Source
LFAT TAF 2018/07/14 09:21 UTC NOAA

TAF TAF LFAT 140800Z 1409/1421 09004KT 8000 NSC
BECMG 1409/1411 30010KT

Example: see airport list